Island Breeze — WDA3596 — position and weather

sailwx.info

Track history (hours):
 
Tides and Currents Weather Stations Pressure Air Temp Water Temp Dewpoint Dewpoint Depression Visibility Wind Speed Wind Dir Waves Ship Positions

Island Breeze

Owner: Island Tug & Barge Co., Seattle, WA. More information available from US FCC via Universal Licensing System and Coast Guard Vessel Documentation Center.

Last reported at 2015-Jan-31 15:43 UTC. Time now 2015-Feb-01 14:50 UTC.
Position N 47°34' W 122°21'.

Length 18 m.

Type: Tug. MMSI: 366800090.

Date/timePositionNaut miles runAvg speedWind from/ knotsBaromVisibWave heightAir tempDewpointWater temp
2015-Jan-31 15:43N 47°34' W 122°21'0 0.0
2015-Jan-31 15:33N 47°34' W 122°21'0 0.0
2015-Jan-31 15:33N 47°34' W 122°21'1 1.3
2015-Jan-31 14:33N 47°36' W 122°22'2 4.3
2015-Jan-31 14:05N 47°35' W 122°25'3 6.0
2015-Jan-31 13:33N 47°33' W 122°28'0 5.6
2015-Jan-31 13:31N 47°33' W 122°28'6 6.5
2015-Jan-31 12:33N 47°27' W 122°31'0 6.5
2015-Jan-31 12:31N 47°26' W 122°31'6 6.7
2015-Jan-31 11:33N 47°20' W 122°33'5 4.7
2015-Jan-31 10:33N 47°15' W 122°34'3 3.2
2015-Jan-31 09:33N 47°12' W 122°36'4 4.5
2015-Jan-31 08:33N 47°09' W 122°39'1 0.4
2015-Jan-31 07:22N 47°08' W 122°39'0 0.0
2015-Jan-31 06:25N 47°08' W 122°39'0 0.0
2015-Jan-31 05:29N 47°08' W 122°39'5 5.6
2015-Jan-31 04:33N 47°13' W 122°36'4 6.2
2015-Jan-31 03:51N 47°17' W 122°33'2 5.6
2015-Jan-31 03:33N 47°18' W 122°33'1 5.0
2015-Jan-31 03:26N 47°19' W 122°33'5 6.0
2015-Jan-31 02:33N 47°24' W 122°32'4 6.8
2015-Jan-31 02:01N 47°28' W 122°31'3 7.5
2015-Jan-31 01:33N 47°31' W 122°29'4 7.6
2015-Jan-31 01:05N 47°34' W 122°28'4 8.1
2015-Jan-31 00:36N 47°38' W 122°29'0 8.6
2015-Jan-31 00:33N 47°39' W 122°29'3 3.4
2015-Jan-30 23:33N 47°40' W 122°24'0 0.9
2015-Jan-30 23:31N 47°40' W 122°24'3 3.1
2015-Jan-30 22:30N 47°39' W 122°19'0 0.0
2015-Jan-30 22:30N 47°39' W 122°19'4 4.6
2015-Jan-30 21:33N 47°43' W 122°16'2 1.9
2015-Jan-30 20:33N 47°45' W 122°16'0 0.2
2015-Jan-30 19:33N 47°44' W 122°16'1 0.7
2015-Jan-30 18:33N 47°45' W 122°16'0 0.4
2015-Jan-30 17:33N 47°45' W 122°15'0 0.0
2015-Jan-30 16:33N 47°45' W 122°15'0 0.0
2015-Jan-30 15:32N 47°45' W 122°15'0 0.0
2015-Jan-30 15:05N 47°45' W 122°15'0 0.0
2015-Jan-30 14:33N 47°45' W 122°15'0 1.0
2015-Jan-30 14:15N 47°45' W 122°16'0 0.4
2015-Jan-30 13:33N 47°45' W 122°15'0 0.0
2015-Jan-30 13:20N 47°45' W 122°15'0 0.0
2015-Jan-30 12:33N 47°45' W 122°15'4 3.8
2015-Jan-30 11:33N 47°42' W 122°15'4 4.0
2015-Jan-30 10:33N 47°39' W 122°20'1 4.0
2015-Jan-30 10:23N 47°39' W 122°20'3 3.6
2015-Jan-30 09:34N 47°40' W 122°24'0 0.0
2015-Jan-30 09:33N 47°40' W 122°24'2 2.4
2015-Jan-30 08:34N 47°38' W 122°25'010.8
2015-Jan-30 08:33N 47°38' W 122°25'4 3.9
2015-Jan-30 07:33N 47°35' W 122°22'0 0.0
2015-Jan-30 07:33N 47°35' W 122°22'1 2.8
2015-Jan-30 07:03N 47°36' W 122°23'2 4.3
2015-Jan-30 06:33N 47°35' W 122°25'6 6.1
2015-Jan-30 05:33N 47°29' W 122°30'1 7.1
2015-Jan-30 05:23N 47°28' W 122°31'6 7.3
2015-Jan-30 04:33N 47°22' W 122°32'7 7.4
2015-Jan-30 03:33N 47°15' W 122°34'7 7.4
2015-Jan-30 02:33N 47°08' W 122°39'0 0.2
2015-Jan-30 01:24N 47°08' W 122°39'0 0.0
2015-Jan-30 00:31N 47°08' W 122°39'1 1.0
2015-Jan-29 23:28N 47°09' W 122°39'7 7.5
2015-Jan-29 22:33N 47°15' W 122°34'6 6.3
2015-Jan-29 21:33N 47°22' W 122°33'8 8.1
2015-Jan-29 20:33N 47°29' W 122°30'6 8.8
2015-Jan-29 19:53N 47°35' W 122°26'2 7.2
2015-Jan-29 19:33N 47°36' W 122°23'0 0.0
2015-Jan-29 19:33N 47°36' W 122°23'6 5.9
2015-Jan-29 18:33N 47°31' W 122°29'1 8.1
2015-Jan-29 18:27N 47°31' W 122°29'7 8.1
2015-Jan-29 17:33N 47°38' W 122°28'0 8.3
2015-Jan-29 17:33N 47°38' W 122°28'4 3.7
2015-Jan-29 16:33N 47°40' W 122°23'0 0.0
2015-Jan-29 16:33N 47°40' W 122°23'0 0.3
2015-Jan-29 15:33N 47°40' W 122°23'0 0.0
2015-Jan-29 15:33N 47°40' W 122°23'0 0.3
2015-Jan-29 14:33N 47°40' W 122°23'2 2.0
2015-Jan-29 13:32N 47°39' W 122°21'4 4.2
2015-Jan-29 12:33N 47°40' W 122°15'6 5.5
2015-Jan-29 11:33N 47°45' W 122°15'0 0.0
2015-Jan-29 09:40N 47°45' W 122°15'0 0.0
2015-Jan-29 07:55N 47°45' W 122°15'0 0.0
2015-Jan-29 06:20N 47°45' W 122°15'1 0.7
2015-Jan-29 05:33N 47°45' W 122°16'1 1.6
2015-Jan-29 04:49N 47°44' W 122°16'2 6.6
2015-Jan-29 04:33N 47°42' W 122°15'0 6.8
2015-Jan-29 04:29N 47°42' W 122°15'4 4.0
2015-Jan-29 03:29N 47°39' W 122°20'0 3.7
2015-Jan-29 03:29N 47°39' W 122°20'3 3.3
2015-Jan-29 02:33N 47°40' W 122°24'0 0.1
2015-Jan-29 02:30N 47°40' W 122°24'3 3.2
2015-Jan-29 01:33N 47°38' W 122°27'0 7.3
2015-Jan-29 01:30N 47°37' W 122°27'7 7.4
2015-Jan-29 00:33N 47°31' W 122°29'1 8.2
2015-Jan-29 00:30N 47°30' W 122°29'7 8.0
2015-Jan-28 23:33N 47°23' W 122°32'9 9.5
2015-Jan-28 22:33N 47°14' W 122°35'6 4.9
2015-Jan-28 21:25N 47°09' W 122°38'0 0.0
2015-Jan-28 20:29N 47°09' W 122°38'0 0.0
2015-Jan-28 19:33N 47°09' W 122°38'0 0.0
2015-Jan-28 19:28N 47°09' W 122°38'0 0.5
2015-Jan-28 18:32N 47°08' W 122°39'4 3.7
2015-Jan-28 17:24N 47°12' W 122°36'8 9.4
2015-Jan-28 16:33N 47°20' W 122°33'1 8.2
2015-Jan-28 16:25N 47°21' W 122°33'7 8.2
2015-Jan-28 15:33N 47°28' W 122°31'7 7.8
2015-Jan-28 14:40N 47°34' W 122°26'1 8.3
2015-Jan-28 14:33N 47°35' W 122°25'0 8.1
2015-Jan-28 14:30N 47°35' W 122°25'3 2.7
2015-Jan-28 13:33N 47°34' W 122°21'0 0.0
2015-Jan-28 13:30N 47°34' W 122°21'1 0.7
2015-Jan-28 12:33N 47°35' W 122°22'0 4.5
2015-Jan-28 12:30N 47°35' W 122°22'5 5.1
2015-Jan-28 11:33N 47°33' W 122°28'3 7.2
2015-Jan-28 11:09N 47°30' W 122°29'4 7.5
2015-Jan-28 10:33N 47°26' W 122°31'7 7.1
2015-Jan-28 09:33N 47°19' W 122°33'7 7.1
2015-Jan-28 08:33N 47°12' W 122°36'4 4.1
2015-Jan-28 07:29N 47°08' W 122°39'1 0.5
2015-Jan-28 06:31N 47°09' W 122°38'0 0.0
2015-Jan-28 05:32N 47°09' W 122°38'0 0.0
2015-Jan-28 04:26N 47°09' W 122°38'0 0.0
2015-Jan-28 03:33N 47°09' W 122°38'4 4.4
2015-Jan-28 02:33N 47°13' W 122°36'7 7.5
2015-Jan-28 01:33N 47°20' W 122°33'7 6.6
2015-Jan-28 00:33N 47°26' W 122°32'7 7.4
2015-Jan-27 23:33N 47°33' W 122°28'2 8.0
2015-Jan-27 23:17N 47°35' W 122°25'3 4.2
2015-Jan-27 22:33N 47°34' W 122°21'0 0.0
2015-Jan-27 22:32N 47°34' W 122°21'0 0.3
2015-Jan-27 21:33N 47°34' W 122°21'0 0.0
2015-Jan-27 21:32N 47°34' W 122°21'0 0.0
2015-Jan-27 20:33N 47°34' W 122°21'0 0.0
2015-Jan-27 20:32N 47°34' W 122°21'1 1.0
2015-Jan-27 19:33N 47°34' W 122°21'0 2.5
2015-Jan-27 19:32N 47°33' W 122°21'2 1.7
2015-Jan-27 18:33N 47°32' W 122°19'0 1.2
2015-Jan-27 18:31N 47°32' W 122°19'0 0.0
2015-Jan-27 17:32N 47°32' W 122°19'0 0.4
2015-Jan-27 17:31N 47°32' W 122°19'2 2.5
2015-Jan-27 16:33N 47°34' W 122°21'0 0.0
2015-Jan-27 16:31N 47°34' W 122°21'0 0.3
2015-Jan-27 15:33N 47°34' W 122°21'0 0.0
2015-Jan-27 15:31N 47°34' W 122°21'1 1.0
2015-Jan-27 14:33N 47°35' W 122°22'0 2.9
2015-Jan-27 14:31N 47°35' W 122°22'0 0.2
2015-Jan-27 13:33N 47°35' W 122°22'0 0.7
2015-Jan-27 13:31N 47°35' W 122°22'1 1.4
2015-Jan-27 12:33N 47°34' W 122°21'0 0.0
2015-Jan-27 12:31N 47°34' W 122°21'0 0.4
2015-Jan-27 11:33N 47°34' W 122°21'0 0.0
2015-Jan-27 11:30N 47°34' W 122°21'0 0.0
2015-Jan-27 10:33N 47°34' W 122°21'0 0.0
2015-Jan-27 10:30N 47°34' W 122°21'0 0.0
2015-Jan-27 09:33N 47°34' W 122°21'0 0.0
2015-Jan-27 09:30N 47°34' W 122°21'0 0.0
2015-Jan-27 08:33N 47°34' W 122°21'0 0.0
2015-Jan-27 06:16N 47°34' W 122°21'0 0.0
2015-Jan-27 06:14N 47°34' W 122°21'1 1.3
2015-Jan-27 05:33N 47°35' W 122°22'0 4.5
2015-Jan-27 05:31N 47°35' W 122°22'1 1.1
2015-Jan-27 04:33N 47°34' W 122°21'1 6.4
2015-Jan-27 04:21N 47°33' W 122°20'1 0.8
2015-Jan-27 03:33N 47°32' W 122°20'0 2.3
2015-Jan-27 03:30N 47°32' W 122°20'2 2.5
2015-Jan-27 02:33N 47°35' W 122°22'0 2.4
2015-Jan-27 02:31N 47°35' W 122°22'1 0.6
2015-Jan-27 01:33N 47°34' W 122°21'0 1.3
2015-Jan-27 01:30N 47°34' W 122°21'0 0.1
2015-Jan-27 00:33N 47°34' W 122°21'0 0.0
2015-Jan-27 00:30N 47°34' W 122°21'0 0.5
2015-Jan-26 23:33N 47°34' W 122°21'0 2.3
2015-Jan-26 23:30N 47°34' W 122°21'1 1.0
2015-Jan-26 22:33N 47°33' W 122°20'0 0.0
2015-Jan-26 22:30N 47°33' W 122°20'0 0.0
2015-Jan-26 21:33N 47°33' W 122°20'0 0.0
2015-Jan-26 21:30N 47°33' W 122°20'0 0.0
2015-Jan-26 20:33N 47°33' W 122°20'0 2.1
2015-Jan-26 20:30N 47°33' W 122°20'3 3.4
2015-Jan-26 19:33N 47°36' W 122°22'0 6.0
2015-Jan-26 19:30N 47°36' W 122°23'6 6.3
2015-Jan-26 18:33N 47°31' W 122°29'1 7.3
2015-Jan-26 18:29N 47°31' W 122°29'6 6.9
2015-Jan-26 17:33N 47°25' W 122°32'1 6.5
2015-Jan-26 17:24N 47°24' W 122°32'5 6.2
2015-Jan-26 16:33N 47°19' W 122°33'5 5.2
2015-Jan-26 15:33N 47°14' W 122°35'6 5.7
2015-Jan-26 14:33N 47°09' W 122°39'1 0.6
2015-Jan-26 13:30N 47°08' W 122°39'0 0.0
2015-Jan-26 12:33N 47°08' W 122°39'0 0.1
2015-Jan-26 11:33N 47°08' W 122°39'1 1.0
2015-Jan-26 10:33N 47°09' W 122°39'4 3.9
2015-Jan-26 09:29N 47°13' W 122°35'4 4.8
2015-Jan-26 08:33N 47°17' W 122°33'5 5.4
2015-Jan-26 07:33N 47°22' W 122°32'7 6.6
2015-Jan-26 06:33N 47°29' W 122°30'4 7.0
2015-Jan-26 06:02N 47°32' W 122°28'4 7.7
2015-Jan-26 05:33N 47°35' W 122°25'0 5.6
2015-Jan-26 05:33N 47°35' W 122°25'3 3.2
2015-Jan-26 04:33N 47°34' W 122°21'0 0.0
2015-Jan-26 04:33N 47°34' W 122°21'2 1.9
2015-Jan-26 03:33N 47°35' W 122°22'0 0.0
2015-Jan-26 03:33N 47°35' W 122°22'1 1.3
2015-Jan-26 02:33N 47°34' W 122°21'0 0.0
2015-Jan-26 02:33N 47°34' W 122°21'0 0.0
2015-Jan-24 08:49N 47°34' W 122°21'0 1.0
2015-Jan-24 08:33N 47°34' W 122°21'0 0.2
2015-Jan-24 08:30N 47°34' W 122°21'0 0.5
2015-Jan-24 07:32N 47°34' W 122°21'0 1.6
2015-Jan-24 07:29N 47°34' W 122°21'0 0.6
2015-Jan-24 06:59N 47°34' W 122°21'0 0.6
2015-Jan-24 06:34N 47°34' W 122°21'1 0.7
2015-Jan-24 05:33N 47°34' W 122°21'0 5.6
2015-Jan-24 05:29N 47°35' W 122°22'1 0.7
2015-Jan-24 04:34N 47°35' W 122°22'0 2.0
2015-Jan-24 04:29N 47°35' W 122°22'6 6.3
2015-Jan-24 03:33N 47°41' W 122°26'0 6.4
2015-Jan-24 03:29N 47°41' W 122°25'4 4.2
2015-Jan-24 02:32N 47°39' W 122°19'1 5.7
2015-Jan-24 02:23N 47°39' W 122°18'5 5.9
2015-Jan-24 01:33N 47°44' W 122°16'1 0.9
2015-Jan-24 00:33N 47°45' W 122°16'2 2.1
2015-Jan-23 23:32N 47°42' W 122°15'3 6.2
2015-Jan-23 23:07N 47°40' W 122°15'3 4.1
2015-Jan-23 22:19N 47°39' W 122°20'0 3.8
2015-Jan-23 22:17N 47°39' W 122°20'3 4.0
2015-Jan-23 21:33N 47°40' W 122°24'0 0.4
2015-Jan-23 21:32N 47°40' W 122°24'2 2.4
2015-Jan-23 20:33N 47°39' W 122°27'7 7.1
2015-Jan-23 19:33N 47°32' W 122°28'8 8.2
2015-Jan-23 18:33N 47°24' W 122°32'9 8.6
2015-Jan-23 17:33N 47°15' W 122°33'8 7.7
2015-Jan-23 16:33N 47°09' W 122°39'1 0.6
2015-Jan-23 15:25N 47°08' W 122°39'0 0.0
2015-Jan-23 14:32N 47°08' W 122°39'0 0.0
2015-Jan-23 13:32N 47°08' W 122°39'0 0.0
2015-Jan-23 12:05N 47°08' W 122°39'0 0.7
2015-Jan-23 11:32N 47°08' W 122°39'9 9.3
2015-Jan-23 10:33N 47°16' W 122°33'8 8.3
2015-Jan-23 09:33N 47°25' W 122°32'7 6.9
2015-Jan-23 08:33N 47°31' W 122°29'8 7.9
2015-Jan-23 07:33N 47°39' W 122°27'4 3.5
2015-Jan-23 06:33N 47°39' W 122°22'5 5.4
2015-Jan-23 05:33N 47°41' W 122°15'1 8.7
2015-Jan-23 05:26N 47°42' W 122°15'3 3.6
2015-Jan-23 04:33N 47°45' W 122°16'2 1.5
2015-Jan-23 03:33N 47°44' W 122°16'1 7.1
2015-Jan-23 03:21N 47°42' W 122°15'4 4.3
2015-Jan-23 02:23N 47°39' W 122°19'1 4.4
2015-Jan-23 02:13N 47°39' W 122°20'2 3.6
2015-Jan-23 01:34N 47°40' W 122°23'0 2.9
2015-Jan-23 01:33N 47°40' W 122°23'0 0.5
2015-Jan-23 00:34N 47°40' W 122°24'0 0.0
2015-Jan-23 00:33N 47°40' W 122°24'3 2.7
2015-Jan-22 23:34N 47°38' W 122°27'010.8
2015-Jan-22 23:33N 47°38' W 122°27'7 6.7
2015-Jan-22 22:33N 47°32' W 122°29'0 6.4
2015-Jan-22 22:33N 47°32' W 122°29'7 7.5
2015-Jan-22 21:33N 47°24' W 122°32'8 8.0
2015-Jan-22 20:33N 47°16' W 122°33'8 8.2
2015-Jan-22 19:33N 47°09' W 122°39'1 1.1
2015-Jan-22 18:28N 47°08' W 122°39'0 0.0
2015-Jan-22 17:33N 47°08' W 122°39'0 0.0
2015-Jan-22 16:31N 47°08' W 122°39'7 7.4
2015-Jan-22 15:33N 47°15' W 122°34'8 8.2
2015-Jan-22 14:34N 47°23' W 122°32'8 8.3
2015-Jan-22 13:33N 47°31' W 122°29'4 8.8
2015-Jan-22 13:06N 47°34' W 122°26'3 5.3
2015-Jan-22 12:33N 47°35' W 122°22'0 0.0
2015-Jan-22 12:30N 47°35' W 122°22'2 1.7
2015-Jan-22 11:33N 47°34' W 122°21'0 0.0
2015-Jan-22 11:25N 47°34' W 122°21'0 0.0
2015-Jan-22 10:34N 47°34' W 122°21'0 0.0
2015-Jan-22 10:30N 47°34' W 122°21'0 0.0
2015-Jan-22 09:34N 47°34' W 122°21'0 0.0
2015-Jan-22 09:30N 47°34' W 122°21'0 0.0
2015-Jan-22 08:33N 47°34' W 122°21'0 0.1
2015-Jan-22 08:30N 47°34' W 122°21'1 0.6
2015-Jan-22 07:34N 47°34' W 122°21'0 0.7
2015-Jan-22 07:15N 47°34' W 122°21'0 0.2
2015-Jan-22 07:10N 47°34' W 122°21'1 2.0
2015-Jan-22 06:33N 47°35' W 122°22'6 6.0
2015-Jan-22 05:33N 47°41' W 122°25'1 6.8
2015-Jan-22 05:29N 47°41' W 122°25'3 3.4
2015-Jan-22 04:34N 47°39' W 122°21'0 5.9
2015-Jan-22 04:29N 47°39' W 122°20'5 5.1
2015-Jan-22 03:33N 47°42' W 122°15'4 3.7
2015-Jan-22 02:33N 47°45' W 122°16'2 1.6
2015-Jan-22 01:34N 47°44' W 122°16'1 6.7
2015-Jan-22 01:25N 47°43' W 122°16'4 4.8
2015-Jan-22 00:33N 47°39' W 122°18'1 3.6
2015-Jan-22 00:20N 47°39' W 122°19'3 3.4
2015-Jan-21 23:33N 47°40' W 122°22'0 3.5
2015-Jan-21 23:31N 47°40' W 122°23'1 2.0
2015-Jan-21 22:50N 47°40' W 122°24'0 4.4
2015-Jan-21 22:46N 47°40' W 122°25'013.4
2015-Jan-21 22:46N 47°41' W 122°25'1 4.3
2015-Jan-21 22:33N 47°40' W 122°26'1 5.8
2015-Jan-21 22:21N 47°39' W 122°27'5 6.2
2015-Jan-21 21:34N 47°34' W 122°27'0 6.3
2015-Jan-21 21:30N 47°34' W 122°27'7 7.2
2015-Jan-21 20:34N 47°28' W 122°31'0 7.8
2015-Jan-21 20:30N 47°27' W 122°31'7 7.5
2015-Jan-21 19:33N 47°20' W 122°33'8 8.3
2015-Jan-21 18:33N 47°12' W 122°36'4 3.0
2015-Jan-21 17:06N 47°08' W 122°39'0 0.0
2015-Jan-21 16:33N 47°08' W 122°39'  
Track history (hours):
 
Tides and Currents Weather Stations Pressure Air Temp Water Temp Dewpoint Dewpoint Depression Visibility Wind Speed Wind Dir Waves Ship Positions

Island Breeze

Owner: Island Tug & Barge Co., Seattle, WA. More information available from US FCC via Universal Licensing System and Coast Guard Vessel Documentation Center.

Last reported at 2015-Jan-31 15:43 UTC. Time now 2015-Feb-01 14:50 UTC.
Position N 47°34' W 122°21'.

Length 18 m.

Type: Tug. MMSI: 366800090.

Date/timePositionNaut miles runAvg speedWind from/ knotsBaromVisibWave heightAir tempDewpointWater temp
2015-Jan-31 15:43N 47°34' W 122°21'0 0.0
2015-Jan-31 15:33N 47°34' W 122°21'0 0.0
2015-Jan-31 15:33N 47°34' W 122°21'1 1.3
2015-Jan-31 14:33N 47°36' W 122°22'2 4.3
2015-Jan-31 14:05N 47°35' W 122°25'3 6.0
2015-Jan-31 13:33N 47°33' W 122°28'0 5.6
2015-Jan-31 13:31N 47°33' W 122°28'6 6.5
2015-Jan-31 12:33N 47°27' W 122°31'0 6.5
2015-Jan-31 12:31N 47°26' W 122°31'6 6.7
2015-Jan-31 11:33N 47°20' W 122°33'5 4.7
2015-Jan-31 10:33N 47°15' W 122°34'3 3.2
2015-Jan-31 09:33N 47°12' W 122°36'4 4.5
2015-Jan-31 08:33N 47°09' W 122°39'1 0.4
2015-Jan-31 07:22N 47°08' W 122°39'0 0.0
2015-Jan-31 06:25N 47°08' W 122°39'0 0.0
2015-Jan-31 05:29N 47°08' W 122°39'5 5.6
2015-Jan-31 04:33N 47°13' W 122°36'4 6.2
2015-Jan-31 03:51N 47°17' W 122°33'2 5.6
2015-Jan-31 03:33N 47°18' W 122°33'1 5.0
2015-Jan-31 03:26N 47°19' W 122°33'5 6.0
2015-Jan-31 02:33N 47°24' W 122°32'4 6.8
2015-Jan-31 02:01N 47°28' W 122°31'3 7.5
2015-Jan-31 01:33N 47°31' W 122°29'4 7.6
2015-Jan-31 01:05N 47°34' W 122°28'4 8.1
2015-Jan-31 00:36N 47°38' W 122°29'0 8.6
2015-Jan-31 00:33N 47°39' W 122°29'3 3.4
2015-Jan-30 23:33N 47°40' W 122°24'0 0.9
2015-Jan-30 23:31N 47°40' W 122°24'3 3.1
2015-Jan-30 22:30N 47°39' W 122°19'0 0.0
2015-Jan-30 22:30N 47°39' W 122°19'4 4.6
2015-Jan-30 21:33N 47°43' W 122°16'2 1.9
2015-Jan-30 20:33N 47°45' W 122°16'0 0.2
2015-Jan-30 19:33N 47°44' W 122°16'1 0.7
2015-Jan-30 18:33N 47°45' W 122°16'0 0.4
2015-Jan-30 17:33N 47°45' W 122°15'0 0.0
2015-Jan-30 16:33N 47°45' W 122°15'0 0.0
2015-Jan-30 15:32N 47°45' W 122°15'0 0.0
2015-Jan-30 15:05N 47°45' W 122°15'0 0.0
2015-Jan-30 14:33N 47°45' W 122°15'0 1.0
2015-Jan-30 14:15N 47°45' W 122°16'0 0.4
2015-Jan-30 13:33N 47°45' W 122°15'0 0.0
2015-Jan-30 13:20N 47°45' W 122°15'0 0.0
2015-Jan-30 12:33N 47°45' W 122°15'4 3.8
2015-Jan-30 11:33N 47°42' W 122°15'4 4.0
2015-Jan-30 10:33N 47°39' W 122°20'1 4.0
2015-Jan-30 10:23N 47°39' W 122°20'3 3.6
2015-Jan-30 09:34N 47°40' W 122°24'0 0.0
2015-Jan-30 09:33N 47°40' W 122°24'2 2.4
2015-Jan-30 08:34N 47°38' W 122°25'010.8
2015-Jan-30 08:33N 47°38' W 122°25'4 3.9
2015-Jan-30 07:33N 47°35' W 122°22'0 0.0
2015-Jan-30 07:33N 47°35' W 122°22'1 2.8
2015-Jan-30 07:03N 47°36' W 122°23'2 4.3
2015-Jan-30 06:33N 47°35' W 122°25'6 6.1
2015-Jan-30 05:33N 47°29' W 122°30'1 7.1
2015-Jan-30 05:23N 47°28' W 122°31'6 7.3
2015-Jan-30 04:33N 47°22' W 122°32'7 7.4
2015-Jan-30 03:33N 47°15' W 122°34'7 7.4
2015-Jan-30 02:33N 47°08' W 122°39'0 0.2
2015-Jan-30 01:24N 47°08' W 122°39'0 0.0
2015-Jan-30 00:31N 47°08' W 122°39'1 1.0
2015-Jan-29 23:28N 47°09' W 122°39'7 7.5
2015-Jan-29 22:33N 47°15' W 122°34'6 6.3
2015-Jan-29 21:33N 47°22' W 122°33'8 8.1
2015-Jan-29 20:33N 47°29' W 122°30'6 8.8
2015-Jan-29 19:53N 47°35' W 122°26'2 7.2
2015-Jan-29 19:33N 47°36' W 122°23'0 0.0
2015-Jan-29 19:33N 47°36' W 122°23'6 5.9
2015-Jan-29 18:33N 47°31' W 122°29'1 8.1
2015-Jan-29 18:27N 47°31' W 122°29'7 8.1
2015-Jan-29 17:33N 47°38' W 122°28'0 8.3
2015-Jan-29 17:33N 47°38' W 122°28'4 3.7
2015-Jan-29 16:33N 47°40' W 122°23'0 0.0
2015-Jan-29 16:33N 47°40' W 122°23'0 0.3
2015-Jan-29 15:33N 47°40' W 122°23'0 0.0
2015-Jan-29 15:33N 47°40' W 122°23'0 0.3
2015-Jan-29 14:33N 47°40' W 122°23'2 2.0
2015-Jan-29 13:32N 47°39' W 122°21'4 4.2
2015-Jan-29 12:33N 47°40' W 122°15'6 5.5
2015-Jan-29 11:33N 47°45' W 122°15'0 0.0
2015-Jan-29 09:40N 47°45' W 122°15'0 0.0
2015-Jan-29 07:55N 47°45' W 122°15'0 0.0
2015-Jan-29 06:20N 47°45' W 122°15'1 0.7
2015-Jan-29 05:33N 47°45' W 122°16'1 1.6
2015-Jan-29 04:49N 47°44' W 122°16'2 6.6
2015-Jan-29 04:33N 47°42' W 122°15'0 6.8
2015-Jan-29 04:29N 47°42' W 122°15'4 4.0
2015-Jan-29 03:29N 47°39' W 122°20'0 3.7
2015-Jan-29 03:29N 47°39' W 122°20'3 3.3
2015-Jan-29 02:33N 47°40' W 122°24'0 0.1
2015-Jan-29 02:30N 47°40' W 122°24'3 3.2
2015-Jan-29 01:33N 47°38' W 122°27'0 7.3
2015-Jan-29 01:30N 47°37' W 122°27'7 7.4
2015-Jan-29 00:33N 47°31' W 122°29'1 8.2
2015-Jan-29 00:30N 47°30' W 122°29'7 8.0
2015-Jan-28 23:33N 47°23' W 122°32'9 9.5
2015-Jan-28 22:33N 47°14' W 122°35'6 4.9
2015-Jan-28 21:25N 47°09' W 122°38'0 0.0
2015-Jan-28 20:29N 47°09' W 122°38'0 0.0
2015-Jan-28 19:33N 47°09' W 122°38'0 0.0
2015-Jan-28 19:28N 47°09' W 122°38'0 0.5
2015-Jan-28 18:32N 47°08' W 122°39'4 3.7
2015-Jan-28 17:24N 47°12' W 122°36'8 9.4
2015-Jan-28 16:33N 47°20' W 122°33'1 8.2
2015-Jan-28 16:25N 47°21' W 122°33'7 8.2
2015-Jan-28 15:33N 47°28' W 122°31'7 7.8
2015-Jan-28 14:40N 47°34' W 122°26'1 8.3
2015-Jan-28 14:33N 47°35' W 122°25'0 8.1
2015-Jan-28 14:30N 47°35' W 122°25'3 2.7
2015-Jan-28 13:33N 47°34' W 122°21'0 0.0
2015-Jan-28 13:30N 47°34' W 122°21'1 0.7
2015-Jan-28 12:33N 47°35' W 122°22'0 4.5
2015-Jan-28 12:30N 47°35' W 122°22'5 5.1
2015-Jan-28 11:33N 47°33' W 122°28'3 7.2
2015-Jan-28 11:09N 47°30' W 122°29'4 7.5
2015-Jan-28 10:33N 47°26' W 122°31'7 7.1
2015-Jan-28 09:33N 47°19' W 122°33'7 7.1
2015-Jan-28 08:33N 47°12' W 122°36'4 4.1
2015-Jan-28 07:29N 47°08' W 122°39'1 0.5
2015-Jan-28 06:31N 47°09' W 122°38'0 0.0
2015-Jan-28 05:32N 47°09' W 122°38'0 0.0
2015-Jan-28 04:26N 47°09' W 122°38'0 0.0
2015-Jan-28 03:33N 47°09' W 122°38'4 4.4
2015-Jan-28 02:33N 47°13' W 122°36'7 7.5
2015-Jan-28 01:33N 47°20' W 122°33'7 6.6
2015-Jan-28 00:33N 47°26' W 122°32'7 7.4
2015-Jan-27 23:33N 47°33' W 122°28'2 8.0
2015-Jan-27 23:17N 47°35' W 122°25'3 4.2
2015-Jan-27 22:33N 47°34' W 122°21'0 0.0
2015-Jan-27 22:32N 47°34' W 122°21'0 0.3
2015-Jan-27 21:33N 47°34' W 122°21'0 0.0
2015-Jan-27 21:32N 47°34' W 122°21'0 0.0
2015-Jan-27 20:33N 47°34' W 122°21'0 0.0
2015-Jan-27 20:32N 47°34' W 122°21'1 1.0
2015-Jan-27 19:33N 47°34' W 122°21'0 2.5
2015-Jan-27 19:32N 47°33' W 122°21'2 1.7
2015-Jan-27 18:33N 47°32' W 122°19'0 1.2
2015-Jan-27 18:31N 47°32' W 122°19'0 0.0
2015-Jan-27 17:32N 47°32' W 122°19'0 0.4
2015-Jan-27 17:31N 47°32' W 122°19'2 2.5
2015-Jan-27 16:33N 47°34' W 122°21'0 0.0
2015-Jan-27 16:31N 47°34' W 122°21'0 0.3
2015-Jan-27 15:33N 47°34' W 122°21'0 0.0
2015-Jan-27 15:31N 47°34' W 122°21'1 1.0
2015-Jan-27 14:33N 47°35' W 122°22'0 2.9
2015-Jan-27 14:31N 47°35' W 122°22'0 0.2
2015-Jan-27 13:33N 47°35' W 122°22'0 0.7
2015-Jan-27 13:31N 47°35' W 122°22'1 1.4
2015-Jan-27 12:33N 47°34' W 122°21'0 0.0
2015-Jan-27 12:31N 47°34' W 122°21'0 0.4
2015-Jan-27 11:33N 47°34' W 122°21'0 0.0
2015-Jan-27 11:30N 47°34' W 122°21'0 0.0
2015-Jan-27 10:33N 47°34' W 122°21'0 0.0
2015-Jan-27 10:30N 47°34' W 122°21'0 0.0
2015-Jan-27 09:33N 47°34' W 122°21'0 0.0
2015-Jan-27 09:30N 47°34' W 122°21'0 0.0
2015-Jan-27 08:33N 47°34' W 122°21'0 0.0
2015-Jan-27 06:16N 47°34' W 122°21'0 0.0
2015-Jan-27 06:14N 47°34' W 122°21'1 1.3
2015-Jan-27 05:33N 47°35' W 122°22'0 4.5
2015-Jan-27 05:31N 47°35' W 122°22'1 1.1
2015-Jan-27 04:33N 47°34' W 122°21'1 6.4
2015-Jan-27 04:21N 47°33' W 122°20'1 0.8
2015-Jan-27 03:33N 47°32' W 122°20'0 2.3
2015-Jan-27 03:30N 47°32' W 122°20'2 2.5
2015-Jan-27 02:33N 47°35' W 122°22'0 2.4
2015-Jan-27 02:31N 47°35' W 122°22'1 0.6
2015-Jan-27 01:33N 47°34' W 122°21'0 1.3
2015-Jan-27 01:30N 47°34' W 122°21'0 0.1
2015-Jan-27 00:33N 47°34' W 122°21'0 0.0
2015-Jan-27 00:30N 47°34' W 122°21'0 0.5
2015-Jan-26 23:33N 47°34' W 122°21'0 2.3
2015-Jan-26 23:30N 47°34' W 122°21'1 1.0
2015-Jan-26 22:33N 47°33' W 122°20'0 0.0
2015-Jan-26 22:30N 47°33' W 122°20'0 0.0
2015-Jan-26 21:33N 47°33' W 122°20'0 0.0
2015-Jan-26 21:30N 47°33' W 122°20'0 0.0
2015-Jan-26 20:33N 47°33' W 122°20'0 2.1
2015-Jan-26 20:30N 47°33' W 122°20'3 3.4
2015-Jan-26 19:33N 47°36' W 122°22'0 6.0
2015-Jan-26 19:30N 47°36' W 122°23'6 6.3
2015-Jan-26 18:33N 47°31' W 122°29'1 7.3
2015-Jan-26 18:29N 47°31' W 122°29'6 6.9
2015-Jan-26 17:33N 47°25' W 122°32'1 6.5
2015-Jan-26 17:24N 47°24' W 122°32'5 6.2
2015-Jan-26 16:33N 47°19' W 122°33'5 5.2
2015-Jan-26 15:33N 47°14' W 122°35'6 5.7
2015-Jan-26 14:33N 47°09' W 122°39'1 0.6
2015-Jan-26 13:30N 47°08' W 122°39'0 0.0
2015-Jan-26 12:33N 47°08' W 122°39'0 0.1
2015-Jan-26 11:33N 47°08' W 122°39'1 1.0
2015-Jan-26 10:33N 47°09' W 122°39'4 3.9
2015-Jan-26 09:29N 47°13' W 122°35'4 4.8
2015-Jan-26 08:33N 47°17' W 122°33'5 5.4
2015-Jan-26 07:33N 47°22' W 122°32'7 6.6
2015-Jan-26 06:33N 47°29' W 122°30'4 7.0
2015-Jan-26 06:02N 47°32' W 122°28'4 7.7
2015-Jan-26 05:33N 47°35' W 122°25'0 5.6
2015-Jan-26 05:33N 47°35' W 122°25'3 3.2
2015-Jan-26 04:33N 47°34' W 122°21'0 0.0
2015-Jan-26 04:33N 47°34' W 122°21'2 1.9
2015-Jan-26 03:33N 47°35' W 122°22'0 0.0
2015-Jan-26 03:33N 47°35' W 122°22'1 1.3
2015-Jan-26 02:33N 47°34' W 122°21'0 0.0
2015-Jan-26 02:33N 47°34' W 122°21'0 0.0
2015-Jan-24 08:49N 47°34' W 122°21'0 1.0
2015-Jan-24 08:33N 47°34' W 122°21'0 0.2
2015-Jan-24 08:30N 47°34' W 122°21'0 0.5
2015-Jan-24 07:32N 47°34' W 122°21'0 1.6
2015-Jan-24 07:29N 47°34' W 122°21'0 0.6
2015-Jan-24 06:59N 47°34' W 122°21'0 0.6
2015-Jan-24 06:34N 47°34' W 122°21'1 0.7
2015-Jan-24 05:33N 47°34' W 122°21'0 5.6
2015-Jan-24 05:29N 47°35' W 122°22'1 0.7
2015-Jan-24 04:34N 47°35' W 122°22'0 2.0
2015-Jan-24 04:29N 47°35' W 122°22'6 6.3
2015-Jan-24 03:33N 47°41' W 122°26'0 6.4
2015-Jan-24 03:29N 47°41' W 122°25'4 4.2
2015-Jan-24 02:32N 47°39' W 122°19'1 5.7
2015-Jan-24 02:23N 47°39' W 122°18'5 5.9
2015-Jan-24 01:33N 47°44' W 122°16'1 0.9
2015-Jan-24 00:33N 47°45' W 122°16'2 2.1
2015-Jan-23 23:32N 47°42' W 122°15'3 6.2
2015-Jan-23 23:07N 47°40' W 122°15'3 4.1
2015-Jan-23 22:19N 47°39' W 122°20'0 3.8
2015-Jan-23 22:17N 47°39' W 122°20'3 4.0
2015-Jan-23 21:33N 47°40' W 122°24'0 0.4
2015-Jan-23 21:32N 47°40' W 122°24'2 2.4
2015-Jan-23 20:33N 47°39' W 122°27'7 7.1
2015-Jan-23 19:33N 47°32' W 122°28'8 8.2
2015-Jan-23 18:33N 47°24' W 122°32'9 8.6
2015-Jan-23 17:33N 47°15' W 122°33'8 7.7
2015-Jan-23 16:33N 47°09' W 122°39'1 0.6
2015-Jan-23 15:25N 47°08' W 122°39'0 0.0
2015-Jan-23 14:32N 47°08' W 122°39'0 0.0
2015-Jan-23 13:32N 47°08' W 122°39'0 0.0
2015-Jan-23 12:05N 47°08' W 122°39'0 0.7
2015-Jan-23 11:32N 47°08' W 122°39'9 9.3
2015-Jan-23 10:33N 47°16' W 122°33'8 8.3
2015-Jan-23 09:33N 47°25' W 122°32'7 6.9
2015-Jan-23 08:33N 47°31' W 122°29'8 7.9
2015-Jan-23 07:33N 47°39' W 122°27'4 3.5
2015-Jan-23 06:33N 47°39' W 122°22'5 5.4
2015-Jan-23 05:33N 47°41' W 122°15'1 8.7
2015-Jan-23 05:26N 47°42' W 122°15'3 3.6
2015-Jan-23 04:33N 47°45' W 122°16'2 1.5
2015-Jan-23 03:33N 47°44' W 122°16'1 7.1
2015-Jan-23 03:21N 47°42' W 122°15'4 4.3
2015-Jan-23 02:23N 47°39' W 122°19'1 4.4
2015-Jan-23 02:13N 47°39' W 122°20'2 3.6
2015-Jan-23 01:34N 47°40' W 122°23'0 2.9
2015-Jan-23 01:33N 47°40' W 122°23'0 0.5
2015-Jan-23 00:34N 47°40' W 122°24'0 0.0
2015-Jan-23 00:33N 47°40' W 122°24'3 2.7
2015-Jan-22 23:34N 47°38' W 122°27'010.8
2015-Jan-22 23:33N 47°38' W 122°27'7 6.7
2015-Jan-22 22:33N 47°32' W 122°29'0 6.4
2015-Jan-22 22:33N 47°32' W 122°29'7 7.5
2015-Jan-22 21:33N 47°24' W 122°32'8 8.0
2015-Jan-22 20:33N 47°16' W 122°33'8 8.2
2015-Jan-22 19:33N 47°09' W 122°39'1 1.1
2015-Jan-22 18:28N 47°08' W 122°39'0 0.0
2015-Jan-22 17:33N 47°08' W 122°39'0 0.0
2015-Jan-22 16:31N 47°08' W 122°39'7 7.4
2015-Jan-22 15:33N 47°15' W 122°34'8 8.2
2015-Jan-22 14:34N 47°23' W 122°32'8 8.3
2015-Jan-22 13:33N 47°31' W 122°29'4 8.8
2015-Jan-22 13:06N 47°34' W 122°26'3 5.3
2015-Jan-22 12:33N 47°35' W 122°22'0 0.0
2015-Jan-22 12:30N 47°35' W 122°22'2 1.7
2015-Jan-22 11:33N 47°34' W 122°21'0 0.0
2015-Jan-22 11:25N 47°34' W 122°21'0 0.0
2015-Jan-22 10:34N 47°34' W 122°21'0 0.0
2015-Jan-22 10:30N 47°34' W 122°21'0 0.0
2015-Jan-22 09:34N 47°34' W 122°21'0 0.0
2015-Jan-22 09:30N 47°34' W 122°21'0 0.0
2015-Jan-22 08:33N 47°34' W 122°21'0 0.1
2015-Jan-22 08:30N 47°34' W 122°21'1 0.6
2015-Jan-22 07:34N 47°34' W 122°21'0 0.7
2015-Jan-22 07:15N 47°34' W 122°21'0 0.2
2015-Jan-22 07:10N 47°34' W 122°21'1 2.0
2015-Jan-22 06:33N 47°35' W 122°22'6 6.0
2015-Jan-22 05:33N 47°41' W 122°25'1 6.8
2015-Jan-22 05:29N 47°41' W 122°25'3 3.4
2015-Jan-22 04:34N 47°39' W 122°21'0 5.9
2015-Jan-22 04:29N 47°39' W 122°20'5 5.1
2015-Jan-22 03:33N 47°42' W 122°15'4 3.7
2015-Jan-22 02:33N 47°45' W 122°16'2 1.6
2015-Jan-22 01:34N 47°44' W 122°16'1 6.7
2015-Jan-22 01:25N 47°43' W 122°16'4 4.8
2015-Jan-22 00:33N 47°39' W 122°18'1 3.6
2015-Jan-22 00:20N 47°39' W 122°19'3 3.4
2015-Jan-21 23:33N 47°40' W 122°22'0 3.5
2015-Jan-21 23:31N 47°40' W 122°23'1 2.0
2015-Jan-21 22:50N 47°40' W 122°24'0 4.4
2015-Jan-21 22:46N 47°40' W 122°25'013.4
2015-Jan-21 22:46N 47°41' W 122°25'1 4.3
2015-Jan-21 22:33N 47°40' W 122°26'1 5.8
2015-Jan-21 22:21N 47°39' W 122°27'5 6.2
2015-Jan-21 21:34N 47°34' W 122°27'0 6.3
2015-Jan-21 21:30N 47°34' W 122°27'7 7.2
2015-Jan-21 20:34N 47°28' W 122°31'0 7.8
2015-Jan-21 20:30N 47°27' W 122°31'7 7.5
2015-Jan-21 19:33N 47°20' W 122°33'8 8.3
2015-Jan-21 18:33N 47°12' W 122°36'4 3.0
2015-Jan-21 17:06N 47°08' W 122°39'0 0.0
2015-Jan-21 16:33N 47°08' W 122°39'  

Dump ship's entire track history